createdAt,value
2019-03-15T13:34:08.829Z,20.90
2019-03-15T13:36:37.443Z,20.90
2019-03-15T13:39:06.368Z,21.00
2019-03-15T13:41:34.886Z,21.00
2019-03-15T13:44:03.420Z,21.10
2019-03-15T13:46:31.906Z,21.10
2019-03-15T13:49:00.536Z,21.20
2019-03-15T13:51:29.052Z,21.20
2019-03-15T13:53:58.037Z,21.10
2019-03-15T13:56:26.523Z,21.20
2019-03-15T13:58:57.497Z,21.20
2019-03-15T14:01:26.639Z,21.20
2019-03-15T14:03:55.199Z,21.20
2019-03-15T14:06:23.640Z,21.30
2019-03-15T14:08:52.346Z,21.40
2019-03-15T14:11:20.846Z,21.40
2019-03-15T14:13:50.029Z,21.50
2019-03-15T14:16:18.537Z,21.50
2019-03-15T14:18:47.075Z,21.50
2019-03-15T14:21:15.857Z,21.50
2019-03-15T14:23:45.917Z,21.50
2019-03-15T14:26:14.483Z,21.50
2019-03-15T14:28:43.144Z,21.50
2019-03-15T14:31:11.680Z,21.50
2019-03-15T14:33:40.444Z,21.50
2019-03-15T14:36:08.970Z,21.50
2019-03-15T14:38:37.505Z,21.50
2019-03-15T14:41:07.625Z,21.50
2019-03-15T14:43:36.407Z,21.50
2019-03-15T14:46:05.250Z,21.50
2019-03-15T14:48:34.001Z,21.50
2019-03-15T14:51:02.566Z,21.50
2019-03-15T14:53:31.187Z,21.50
2019-03-15T14:56:01.344Z,21.50
2019-03-15T14:58:29.892Z,21.50
2019-03-15T15:00:58.355Z,21.50
2019-03-15T15:03:26.859Z,21.50
2019-03-15T15:05:55.315Z,21.50
2019-03-15T15:08:24.095Z,21.50
2019-03-15T15:10:52.765Z,21.50
2019-03-15T15:13:21.459Z,21.50
2019-03-15T15:15:49.976Z,21.50
2019-03-15T15:18:18.536Z,21.50
2019-03-15T15:20:47.131Z,21.40
2019-03-15T15:23:15.701Z,21.40
2019-03-15T15:25:45.061Z,21.40
2019-03-15T15:28:13.567Z,21.40
2019-03-15T15:30:42.027Z,21.30
2019-03-15T15:33:10.514Z,21.30
2019-03-15T15:35:41.527Z,21.30
2019-03-15T15:38:09.243Z,21.40
2019-03-15T15:40:37.772Z,21.40
2019-03-15T15:43:06.276Z,21.40
2019-03-15T15:45:34.751Z,21.40
2019-03-15T15:48:03.388Z,21.40
2019-03-15T15:50:31.854Z,21.50
2019-03-15T15:53:00.524Z,21.50
2019-03-15T15:55:29.100Z,21.60
2019-03-15T15:57:57.711Z,21.60
2019-03-15T16:00:26.176Z,21.50
2019-03-15T16:02:54.661Z,21.60
2019-03-15T16:05:23.164Z,21.50
2019-03-15T16:07:51.691Z,21.50
2019-03-15T16:10:20.132Z,21.50
2019-03-15T16:12:48.770Z,21.50
2019-03-15T16:15:19.114Z,21.50
2019-03-15T16:17:47.593Z,21.50
2019-03-15T16:20:16.141Z,21.50
2019-03-15T16:22:45.020Z,21.50
2019-03-15T16:25:13.644Z,21.50
2019-03-15T16:27:42.178Z,21.50
2019-03-15T16:30:20.759Z,21.40
2019-03-15T16:32:49.592Z,21.40
2019-03-15T16:35:18.437Z,21.40
2019-03-15T16:37:46.970Z,21.40
2019-03-15T16:40:16.073Z,21.40
2019-03-15T16:42:44.588Z,21.50
2019-03-15T16:45:18.854Z,21.50
2019-03-15T16:47:47.371Z,21.50
2019-03-15T16:50:16.126Z,21.50
2019-03-15T16:52:44.661Z,21.40
2019-03-15T16:55:14.010Z,21.40
2019-03-15T16:57:42.516Z,21.50
2019-03-15T17:00:14.961Z,21.40
2019-03-15T17:02:43.797Z,21.40
2019-03-15T17:05:13.293Z,21.40
2019-03-15T17:07:42.288Z,21.40
2019-03-15T17:10:16.726Z,21.30
2019-03-15T17:12:45.511Z,21.40
2019-03-15T17:15:18.726Z,21.40
2019-03-15T17:17:47.254Z,21.40
2019-03-15T17:20:15.820Z,21.40
2019-03-15T17:22:44.402Z,21.40
2019-03-15T17:25:12.884Z,21.40
2019-03-15T17:27:41.345Z,21.40
2019-03-15T17:30:16.815Z,21.40
2019-03-15T17:32:45.395Z,21.40
2019-03-15T17:35:18.163Z,21.40
2019-03-15T17:37:46.658Z,21.30
2019-03-15T17:40:19.706Z,21.30
2019-03-15T17:42:48.196Z,21.30
2019-03-15T17:45:16.722Z,21.30
2019-03-15T17:47:45.189Z,21.30
2019-03-15T17:50:24.704Z,21.30
2019-03-15T17:52:53.208Z,21.20
2019-03-15T17:55:21.673Z,21.20
2019-03-15T17:57:50.148Z,21.20
2019-03-15T18:00:28.514Z,21.20
2019-03-15T18:02:57.120Z,21.20
2019-03-15T18:05:25.677Z,21.20
2019-03-15T18:07:54.227Z,21.20
2019-03-15T18:10:22.792Z,21.20
2019-03-15T18:12:51.430Z,21.30
2019-03-15T18:15:21.506Z,21.30
2019-03-15T18:17:50.027Z,21.30
2019-03-15T18:20:18.806Z,21.20
2019-03-15T18:22:47.267Z,21.20
2019-03-15T18:25:16.400Z,21.20
2019-03-15T18:27:46.529Z,21.20
2019-03-15T18:30:17.041Z,21.20
2019-03-15T18:32:45.606Z,21.20
2019-03-15T18:35:14.396Z,21.30
2019-03-15T18:37:43.205Z,21.30
2019-03-15T18:40:17.600Z,21.20
2019-03-15T18:42:46.045Z,21.20
2019-03-15T18:45:16.708Z,21.20
2019-03-15T18:47:45.369Z,21.20
2019-03-15T18:50:17.138Z,21.20
2019-03-15T18:52:45.584Z,21.20
2019-03-15T18:55:14.318Z,21.20
2019-03-15T18:57:42.764Z,21.10
2019-03-15T19:00:16.907Z,21.20
2019-03-15T19:02:45.433Z,21.20
2019-03-15T19:05:13.868Z,21.20
2019-03-15T19:07:42.312Z,21.20
2019-03-15T19:10:12.338Z,21.20
2019-03-15T19:12:40.784Z,21.10
2019-03-15T19:15:13.969Z,21.10
2019-03-15T19:17:42.615Z,21.10
2019-03-15T19:20:15.240Z,21.10
2019-03-15T19:22:43.705Z,21.00
2019-03-15T19:25:12.919Z,21.00
2019-03-15T19:27:41.381Z,21.00
2019-03-15T19:30:14.606Z,21.00
2019-03-15T19:32:44.722Z,21.00
2019-03-15T19:35:13.302Z,20.90
2019-03-15T19:37:41.807Z,20.90
2019-03-15T19:40:15.008Z,20.90
2019-03-15T19:42:45.460Z,20.90
2019-03-15T19:45:15.003Z,20.90
2019-03-15T19:47:43.623Z,20.90
2019-03-15T19:50:19.605Z,20.80
2019-03-15T19:52:48.195Z,20.80
2019-03-15T19:55:16.919Z,20.80
2019-03-15T19:57:45.468Z,20.80
2019-03-15T20:00:22.072Z,20.80
2019-03-15T20:02:50.629Z,20.80
2019-03-15T20:05:19.193Z,20.80
2019-03-15T20:07:49.528Z,20.70
2019-03-15T20:10:18.343Z,20.70
2019-03-15T20:12:46.975Z,20.70
2019-03-15T20:15:16.403Z,20.70
2019-03-15T20:17:44.861Z,20.70
2019-03-15T20:20:17.998Z,20.70
2019-03-15T20:22:46.614Z,20.70
2019-03-15T20:25:15.969Z,20.70
2019-03-15T20:27:46.283Z,20.70
2019-03-15T20:30:22.954Z,20.70
2019-03-15T20:32:47.308Z,20.70
2019-03-15T20:35:15.875Z,20.70
2019-03-15T20:37:44.394Z,20.60
2019-03-15T20:40:15.977Z,20.60
2019-03-15T20:42:44.646Z,20.60
2019-03-15T20:45:21.255Z,20.60
2019-03-15T20:47:51.439Z,20.60
2019-03-15T20:50:20.097Z,20.60
2019-03-15T20:52:48.694Z,20.60
2019-03-15T20:55:17.406Z,20.60
2019-03-15T20:57:45.836Z,20.60
2019-03-15T21:00:18.291Z,20.50
2019-03-15T21:02:46.984Z,20.50
2019-03-15T21:05:15.495Z,20.50
2019-03-15T21:07:44.224Z,20.50
2019-03-15T21:10:17.164Z,20.50
2019-03-15T21:12:45.649Z,20.50
2019-03-15T21:15:17.421Z,20.50
2019-03-15T21:17:47.632Z,20.50
2019-03-15T21:20:23.020Z,20.50
2019-03-15T21:22:51.665Z,20.50
2019-03-15T21:25:20.269Z,20.50
2019-03-15T21:27:54.260Z,20.40
2019-03-15T21:30:27.352Z,20.40
